Time;durP1;ratioP1;P1;durP2;ratioP2;P2;SDS_P1;SDS_P2;PMS_P1;PMS_P2;Temp;Humidity;BMP_temperature;BMP_pressure;BME280_temperature;BME280_humidity;BME280_pressure;Samples;Min_cycle;Max_cycle;Signal;HPM_P1;HPM_P2
2023/06/20 00:01:23;;;;;;;11.43;7.17;;;20.00;99.90;;;;;;477441;249;28781;-76
2023/06/20 00:03:24;;;;;;;8.80;7.20;;;20.00;99.90;;;;;;477227;249;28802;-77
2023/06/20 00:05:26;;;;;;;8.20;7.50;;;20.00;99.90;;;;;;477403;249;28891;-76
2023/06/20 00:07:27;;;;;;;9.83;7.53;;;19.90;99.90;;;;;;477310;249;29316;-77
2023/06/20 00:09:28;;;;;;;8.60;7.87;;;19.90;99.90;;;;;;477143;249;28860;-76
2023/06/20 00:11:30;;;;;;;8.70;7.90;;;19.90;99.90;;;;;;477296;249;28844;-77
2023/06/20 00:13:31;;;;;;;8.07;7.37;;;19.90;99.90;;;;;;477452;249;28879;-77
2023/06/20 00:15:32;;;;;;;8.93;8.13;;;19.90;99.90;;;;;;477457;249;28899;-77
2023/06/20 00:17:33;;;;;;;11.50;8.77;;;19.80;99.90;;;;;;477429;249;29290;-77
2023/06/20 00:19:35;;;;;;;11.80;6.97;;;19.80;99.90;;;;;;477425;249;29324;-77
2023/06/20 00:21:39;;;;;;;7.70;7.00;;;19.80;99.90;;;;;;477266;249;29418;-78
2023/06/20 00:23:37;;;;;;;8.30;7.60;;;19.90;99.90;;;;;;476961;249;28938;-77
2023/06/20 00:25:38;;;;;;;9.23;8.43;;;19.80;99.90;;;;;;477256;249;28837;-77
2023/06/20 00:27:40;;;;;;;8.73;7.93;;;19.80;99.90;;;;;;477442;249;29260;-75
2023/06/20 00:29:41;;;;;;;9.73;8.87;;;19.80;99.90;;;;;;477439;249;28880;-77
2023/06/20 00:31:42;;;;;;;9.20;8.40;;;19.70;99.90;;;;;;477373;249;28797;-77
2023/06/20 00:33:43;;;;;;;9.13;8.23;;;19.50;99.90;;;;;;477436;249;28864;-76
2023/06/20 00:35:45;;;;;;;9.23;8.40;;;19.40;99.90;;;;;;477482;249;28854;-77
2023/06/20 00:37:46;;;;;;;9.10;8.30;;;19.40;99.90;;;;;;477368;249;28918;-77
2023/06/20 00:39:47;;;;;;;9.00;8.10;;;19.40;99.90;;;;;;477352;249;28959;-78
2023/06/20 00:41:49;;;;;;;8.93;8.03;;;19.50;99.90;;;;;;477375;249;30399;-77
2023/06/20 00:43:50;;;;;;;9.57;8.17;;;19.30;99.90;;;;;;477376;249;29324;-77
2023/06/20 00:45:51;;;;;;;9.07;8.27;;;19.30;99.90;;;;;;477436;249;29307;-77
2023/06/20 00:47:52;;;;;;;9.07;8.27;;;19.40;99.90;;;;;;477429;248;29362;-77
2023/06/20 00:49:53;;;;;;;10.40;9.40;;;19.40;99.90;;;;;;477064;249;28908;-77
2023/06/20 00:51:55;;;;;;;10.40;9.40;;;19.40;99.90;;;;;;477411;249;28810;-77
2023/06/20 00:53:56;;;;;;;12.97;11.77;;;19.40;99.90;;;;;;477386;249;28895;-77
2023/06/20 00:55:57;;;;;;;11.70;9.13;;;19.30;99.90;;;;;;477414;249;29287;-77
2023/06/20 00:57:58;;;;;;;9.73;8.87;;;19.30;99.90;;;;;;477437;249;29298;-76
2023/06/20 01:00:00;;;;;;;10.33;9.23;;;19.40;99.90;;;;;;477390;249;28902;-77
2023/06/20 01:02:03;;;;;;;9.53;8.53;;;19.40;99.90;;;;;;477329;249;28957;-78
2023/06/20 01:04:02;;;;;;;10.30;9.40;;;19.50;99.90;;;;;;477323;245;28785;-77
2023/06/20 01:06:04;;;;;;;9.60;8.80;;;19.50;99.90;;;;;;477391;249;29297;-78
2023/06/20 01:08:05;;;;;;;9.00;8.30;;;19.60;99.90;;;;;;477401;249;28777;-77
2023/06/20 01:10:06;;;;;;;10.33;9.40;;;19.60;99.90;;;;;;477423;249;28920;-76
2023/06/20 01:12:07;;;;;;;10.17;9.17;;;19.60;99.90;;;;;;477477;249;28952;-76
2023/06/20 01:14:09;;;;;;;9.90;9.00;;;19.50;99.90;;;;;;477477;249;28850;-77
2023/06/20 01:16:10;;;;;;;9.57;8.67;;;19.50;99.90;;;;;;477387;249;28864;-76
2023/06/20 01:18:11;;;;;;;10.13;9.13;;;19.40;99.90;;;;;;477431;249;29169;-77
2023/06/20 01:20:12;;;;;;;9.57;8.73;;;19.40;99.90;;;;;;477404;249;28909;-77
2023/06/20 01:22:14;;;;;;;10.37;9.40;;;19.40;99.90;;;;;;477387;249;29433;-76
2023/06/20 01:24:15;;;;;;;12.47;9.00;;;19.40;99.90;;;;;;477426;249;29346;-76
2023/06/20 01:26:17;;;;;;;9.80;8.53;;;19.40;99.90;;;;;;477379;248;28821;-76
2023/06/20 01:28:17;;;;;;;12.07;9.10;;;19.40;99.90;;;;;;477324;249;28826;-76
2023/06/20 01:30:19;;;;;;;9.50;8.60;;;19.40;99.90;;;;;;477386;249;28858;-76
2023/06/20 01:32:20;;;;;;;10.27;9.23;;;19.40;99.90;;;;;;477386;249;29269;-77
2023/06/20 01:34:21;;;;;;;14.10;11.37;;;19.40;99.90;;;;;;477425;249;28791;-76
2023/06/20 01:36:22;;;;;;;14.47;11.80;;;19.30;99.90;;;;;;477448;249;28839;-76
2023/06/20 01:38:24;;;;;;;11.13;9.93;;;19.10;99.90;;;;;;477415;249;29316;-76
2023/06/20 01:40:25;;;;;;;15.63;9.93;;;19.10;99.90;;;;;;477453;249;29316;-76
2023/06/20 01:42:26;;;;;;;12.53;9.00;;;19.10;99.90;;;;;;477434;249;29464;-77
2023/06/20 01:44:27;;;;;;;9.27;8.47;;;19.10;99.90;;;;;;477447;249;28814;-76
2023/06/20 01:46:29;;;;;;;11.43;10.10;;;19.20;99.90;;;;;;477447;249;28826;-76
2023/06/20 01:48:31;;;;;;;11.63;10.43;;;19.20;99.90;;;;;;477377;249;28882;-75
2023/06/20 01:50:31;;;;;;;10.00;9.00;;;19.20;99.90;;;;;;477230;249;28847;-76
2023/06/20 01:52:33;;;;;;;10.23;9.33;;;19.10;99.90;;;;;;477443;249;28865;-76
2023/06/20 01:54:34;;;;;;;10.17;9.27;;;19.20;99.90;;;;;;477430;249;29330;-77
2023/06/20 01:56:35;;;;;;;12.93;9.90;;;19.20;99.90;;;;;;477458;249;29309;-76
2023/06/20 01:58:36;;;;;;;13.00;9.50;;;19.30;99.90;;;;;;477383;249;28901;-76
2023/06/20 02:00:37;;;;;;;11.17;9.73;;;19.30;99.90;;;;;;477337;249;28936;-77
2023/06/20 02:02:39;;;;;;;10.80;9.70;;;19.30;99.90;;;;;;477282;249;28822;-76
2023/06/20 02:04:40;;;;;;;9.40;8.50;;;19.40;99.90;;;;;;477427;249;28795;-77
2023/06/20 02:06:41;;;;;;;12.07;10.83;;;19.30;99.90;;;;;;477436;246;28831;-77
2023/06/20 02:08:43;;;;;;;11.33;10.23;;;19.30;99.90;;;;;;477420;249;28818;-77
2023/06/20 02:10:44;;;;;;;11.83;10.70;;;19.30;99.90;;;;;;477418;249;28816;-76
2023/06/20 02:12:45;;;;;;;12.63;10.33;;;19.20;99.90;;;;;;477322;249;28919;-77
2023/06/20 02:14:47;;;;;;;11.80;9.97;;;19.30;99.90;;;;;;477462;249;28801;-77
2023/06/20 02:16:48;;;;;;;12.00;10.03;;;19.30;99.90;;;;;;477451;249;29338;-76
2023/06/20 02:18:49;;;;;;;10.70;9.70;;;19.20;99.90;;;;;;477452;249;29228;-76
2023/06/20 02:20:50;;;;;;;9.60;8.70;;;19.10;99.90;;;;;;477453;249;28903;-76
2023/06/20 02:22:51;;;;;;;11.37;10.30;;;19.20;99.90;;;;;;477455;249;28830;-76
2023/06/20 02:24:53;;;;;;;10.90;9.73;;;19.10;99.90;;;;;;477460;249;28895;-76
2023/06/20 02:26:54;;;;;;;11.03;10.03;;;19.10;99.90;;;;;;477421;249;28902;-77
2023/06/20 02:28:55;;;;;;;9.83;9.03;;;19.10;99.90;;;;;;477453;249;28798;-76
2023/06/20 02:30:56;;;;;;;11.30;9.53;;;19.10;99.90;;;;;;477421;249;28814;-76
2023/06/20 02:32:58;;;;;;;9.60;8.70;;;19.00;99.90;;;;;;477366;249;28849;-77
2023/06/20 02:34:59;;;;;;;10.93;9.93;;;19.00;99.90;;;;;;477507;249;29247;-76
2023/06/20 02:37:00;;;;;;;10.60;9.60;;;19.00;99.90;;;;;;477395;249;29455;-77
2023/06/20 02:39:01;;;;;;;11.37;10.23;;;19.00;99.90;;;;;;477357;249;28818;-77
2023/06/20 02:41:03;;;;;;;10.90;9.80;;;19.00;99.90;;;;;;477310;249;28983;-77
2023/06/20 02:43:06;;;;;;;10.80;9.73;;;18.90;99.90;;;;;;477383;249;28980;-76
2023/06/20 02:45:05;;;;;;;13.20;10.73;;;18.80;99.90;;;;;;477342;249;28779;-76
2023/06/20 02:47:06;;;;;;;10.23;9.10;;;18.80;99.90;;;;;;477366;248;28900;-76
2023/06/20 02:49:08;;;;;;;9.67;8.77;;;18.80;99.90;;;;;;477504;249;28902;-76
2023/06/20 02:51:09;;;;;;;11.50;9.50;;;18.80;99.90;;;;;;477397;249;29347;-77
2023/06/20 02:53:11;;;;;;;14.10;9.00;;;18.70;99.90;;;;;;477438;249;29420;-78
2023/06/20 02:55:12;;;;;;;10.10;9.10;;;18.70;99.90;;;;;;477299;249;28857;-77
2023/06/20 02:57:13;;;;;;;11.17;9.23;;;18.70;99.90;;;;;;477286;249;29317;-76
2023/06/20 02:59:14;;;;;;;10.77;9.70;;;18.70;99.90;;;;;;477232;249;28833;-77
2023/06/20 03:01:17;;;;;;;11.80;8.53;;;18.70;99.90;;;;;;477468;249;28805;-76
2023/06/20 03:03:18;;;;;;;10.43;9.43;;;18.70;99.90;;;;;;477354;249;28909;-78
2023/06/20 03:05:20;;;;;;;10.40;9.40;;;18.60;99.90;;;;;;477443;249;28814;-78
2023/06/20 03:07:20;;;;;;;9.87;8.97;;;18.60;99.90;;;;;;477489;249;28893;-76
2023/06/20 03:09:22;;;;;;;10.43;9.53;;;18.60;99.90;;;;;;477310;245;28989;-76
2023/06/20 03:11:23;;;;;;;10.27;9.37;;;18.60;99.90;;;;;;477471;249;29180;-77
2023/06/20 03:13:24;;;;;;;10.87;9.87;;;18.50;99.90;;;;;;477372;249;29266;-77
2023/06/20 03:15:27;;;;;;;10.60;9.60;;;18.50;99.90;;;;;;477402;249;29334;-77
2023/06/20 03:17:27;;;;;;;10.77;9.77;;;18.50;99.90;;;;;;477375;249;29321;-76
2023/06/20 03:19:28;;;;;;;11.13;10.13;;;18.50;99.90;;;;;;477402;249;28918;-77
2023/06/20 03:21:29;;;;;;;12.27;11.03;;;18.50;99.90;;;;;;477453;249;28899;-76
2023/06/20 03:23:30;;;;;;;10.83;9.83;;;18.40;99.90;;;;;;477403;249;28848;-77
2023/06/20 03:25:32;;;;;;;10.57;9.50;;;18.40;99.90;;;;;;477279;249;28861;-77
2023/06/20 03:27:33;;;;;;;10.93;9.83;;;18.40;99.90;;;;;;477459;249;28790;-76
2023/06/20 03:29:34;;;;;;;10.77;9.67;;;18.40;99.90;;;;;;477389;249;28946;-77
2023/06/20 03:31:35;;;;;;;11.03;10.00;;;18.40;99.90;;;;;;477450;249;29286;-77
2023/06/20 03:33:37;;;;;;;10.90;9.90;;;18.40;99.90;;;;;;477437;249;29394;-76
2023/06/20 03:35:39;;;;;;;12.40;11.10;;;18.40;99.90;;;;;;477433;249;29412;-76
2023/06/20 03:37:39;;;;;;;11.50;10.40;;;18.30;99.90;;;;;;477375;249;28807;-76
2023/06/20 03:39:40;;;;;;;9.97;9.00;;;18.40;99.90;;;;;;477444;249;28914;-77
2023/06/20 03:41:42;;;;;;;10.80;9.80;;;18.40;99.90;;;;;;477443;249;29288;-76
2023/06/20 03:43:43;;;;;;;10.67;9.67;;;18.40;99.90;;;;;;477592;249;28887;-76
2023/06/20 03:45:44;;;;;;;10.70;9.70;;;18.40;99.90;;;;;;477541;249;28814;-77
2023/06/20 03:47:45;;;;;;;10.87;9.77;;;18.40;99.90;;;;;;477519;249;29237;-76
2023/06/20 03:49:47;;;;;;;12.47;10.93;;;18.50;99.90;;;;;;477543;249;29329;-77
2023/06/20 03:51:48;;;;;;;11.30;10.10;;;18.40;99.90;;;;;;477433;249;29512;-76
2023/06/20 03:53:49;;;;;;;11.20;10.20;;;18.30;99.90;;;;;;477567;249;28871;-76
2023/06/20 03:55:51;;;;;;;11.20;10.10;;;18.30;99.90;;;;;;477479;249;28975;-77
2023/06/20 03:57:52;;;;;;;10.80;9.80;;;18.30;99.90;;;;;;477524;249;28864;-76
2023/06/20 03:59:53;;;;;;;11.60;10.60;;;18.20;99.90;;;;;;477540;249;28914;-76
2023/06/20 04:01:54;;;;;;;10.40;9.07;;;18.20;99.90;;;;;;477312;249;28838;-77
2023/06/20 04:03:56;;;;;;;10.60;9.60;;;18.20;99.90;;;;;;477543;249;29355;-77
2023/06/20 04:06:01;;;;;;;13.80;11.90;;;18.30;99.90;;;;;;477525;249;29396;-76
2023/06/20 04:08:00;;;;;;;11.97;10.77;;;18.20;99.90;;;;;;477233;249;28807;-77
2023/06/20 04:09:59;;;;;;;10.70;9.50;;;18.10;99.90;;;;;;477405;249;28873;-77
2023/06/20 04:12:01;;;;;;;11.77;10.67;;;18.10;99.90;;;;;;477510;249;28787;-77
2023/06/20 04:14:02;;;;;;;11.57;10.47;;;18.20;99.90;;;;;;477494;249;28839;-76
2023/06/20 04:16:03;;;;;;;11.57;10.57;;;18.20;99.90;;;;;;477520;249;28804;-75
2023/06/20 04:18:04;;;;;;;11.87;10.77;;;18.30;99.90;;;;;;477505;249;29272;-75
2023/06/20 04:20:12;;;;;;;13.87;12.47;;;18.30;99.90;;;;;;477520;249;29387;-76
2023/06/20 04:22:14;;;;;;;18.23;16.30;;;18.40;99.90;;;;;;477389;249;29439;-77
2023/06/20 04:24:14;;;;;;;12.23;11.03;;;18.30;99.90;;;;;;477438;249;29417;-75
2023/06/20 04:26:15;;;;;;;11.97;10.87;;;18.40;99.90;;;;;;477564;249;28852;-78
2023/06/20 04:28:17;;;;;;;12.30;11.20;;;18.50;99.90;;;;;;477449;249;28780;-77
2023/06/20 04:30:18;;;;;;;11.53;10.43;;;18.60;99.90;;;;;;477292;249;28875;-77
2023/06/20 04:32:19;;;;;;;11.67;10.47;;;18.70;99.90;;;;;;477433;249;28903;-76
2023/06/20 04:34:23;;;;;;;12.07;10.97;;;18.80;99.90;;;;;;477433;249;28780;-77
2023/06/20 04:36:21;;;;;;;12.47;11.27;;;18.80;99.90;;;;;;477312;249;28847;-77
2023/06/20 04:38:23;;;;;;;11.33;10.23;;;18.80;99.90;;;;;;477459;249;28840;-77
2023/06/20 04:40:26;;;;;;;11.10;10.10;;;18.90;99.90;;;;;;477485;249;28894;-77
2023/06/20 04:42:25;;;;;;;11.00;9.80;;;18.90;99.90;;;;;;477357;249;28800;-76
2023/06/20 04:44:27;;;;;;;12.10;11.00;;;19.00;99.90;;;;;;477528;249;28803;-76
2023/06/20 04:46:28;;;;;;;11.73;10.63;;;19.10;99.90;;;;;;477518;249;28812;-78
2023/06/20 04:48:29;;;;;;;11.67;10.57;;;19.10;99.90;;;;;;477487;249;28919;-76
2023/06/20 04:50:30;;;;;;;11.50;10.40;;;19.10;99.90;;;;;;477140;249;28831;-78
2023/06/20 04:52:32;;;;;;;11.40;10.33;;;19.20;99.90;;;;;;476764;249;29375;-77
2023/06/20 04:54:33;;;;;;;12.57;11.43;;;19.20;99.90;;;;;;477391;249;29244;-77
2023/06/20 04:56:40;;;;;;;10.77;9.87;;;19.30;99.90;;;;;;477408;249;28783;-77
2023/06/20 04:58:39;;;;;;;12.80;11.40;;;19.20;99.90;;;;;;477188;249;29805;-76
2023/06/20 05:00:40;;;;;;;10.50;9.60;;;19.20;99.90;;;;;;477583;249;28881;-77
2023/06/20 05:02:44;;;;;;;12.73;11.47;;;19.20;99.90;;;;;;477592;249;28798;-77
2023/06/20 05:04:46;;;;;;;10.80;9.87;;;19.20;99.90;;;;;;477503;249;28780;-77
2023/06/20 05:06:47;;;;;;;11.20;10.17;;;19.30;99.90;;;;;;477570;249;28833;-78
2023/06/20 05:08:48;;;;;;;12.63;11.43;;;19.30;99.90;;;;;;477565;249;28768;-76
2023/06/20 05:10:49;;;;;;;12.83;11.63;;;19.30;99.90;;;;;;477536;249;28818;-76
2023/06/20 05:12:51;;;;;;;12.40;11.23;;;19.20;99.90;;;;;;477386;249;28819;-77
2023/06/20 05:14:52;;;;;;;13.63;10.90;;;19.20;99.90;;;;;;477539;249;29335;-76
2023/06/20 05:16:53;;;;;;;12.83;11.40;;;19.20;99.90;;;;;;477472;249;29263;-77
2023/06/20 05:18:54;;;;;;;13.50;12.30;;;19.20;99.90;;;;;;477485;249;29316;-76
2023/06/20 05:20:56;;;;;;;11.60;10.60;;;19.30;99.90;;;;;;477483;249;28797;-76
2023/06/20 05:22:57;;;;;;;13.50;12.20;;;19.30;99.90;;;;;;477472;249;28808;-76
2023/06/20 05:24:58;;;;;;;13.17;11.87;;;19.20;99.90;;;;;;477553;249;28781;-76
2023/06/20 05:26:59;;;;;;;13.03;11.80;;;19.30;99.90;;;;;;477484;249;28899;-76
2023/06/20 05:29:01;;;;;;;11.60;10.50;;;19.30;99.90;;;;;;477476;249;28776;-76
2023/06/20 05:31:02;;;;;;;11.57;10.47;;;19.40;99.90;;;;;;477543;249;28791;-76
2023/06/20 05:33:03;;;;;;;12.77;11.57;;;19.40;99.90;;;;;;477455;249;28903;-77
2023/06/20 05:35:07;;;;;;;13.10;11.70;;;19.40;99.90;;;;;;477481;249;28744;-75
2023/06/20 05:37:06;;;;;;;11.77;10.67;;;19.40;99.90;;;;;;477275;248;29265;-76
2023/06/20 05:39:09;;;;;;;12.90;11.60;;;19.50;99.90;;;;;;477483;249;28891;-76
2023/06/20 05:41:14;;;;;;;14.73;10.80;;;19.50;99.90;;;;;;477482;249;29221;-77
2023/06/20 05:43:10;;;;;;;11.50;10.43;;;19.60;99.90;;;;;;477160;249;29314;-77
2023/06/20 05:45:11;;;;;;;12.33;11.13;;;19.60;99.90;;;;;;477544;249;28780;-76
2023/06/20 05:47:17;;;;;;;13.10;11.70;;;19.60;99.90;;;;;;477533;249;28835;-77
2023/06/20 05:49:15;;;;;;;12.00;10.80;;;19.70;99.90;;;;;;477170;249;29119;-76
2023/06/20 05:51:15;;;;;;;12.73;11.43;;;19.70;99.90;;;;;;477395;249;28895;-76
2023/06/20 05:53:16;;;;;;;13.23;12.03;;;19.70;99.90;;;;;;477438;249;28798;-77
2023/06/20 05:55:17;;;;;;;13.13;11.93;;;19.70;99.90;;;;;;477494;249;28866;-76
2023/06/20 05:57:18;;;;;;;13.00;11.80;;;19.70;99.90;;;;;;477524;249;28818;-77
2023/06/20 05:59:20;;;;;;;13.00;11.80;;;19.80;99.90;;;;;;477440;249;29306;-77
2023/06/20 06:01:21;;;;;;;13.33;12.13;;;19.80;99.90;;;;;;477522;249;28857;-76
2023/06/20 06:03:22;;;;;;;14.07;12.63;;;19.90;99.90;;;;;;477477;249;28903;-76
2023/06/20 06:05:23;;;;;;;15.57;14.00;;;19.90;99.90;;;;;;477440;249;28836;-75
2023/06/20 06:07:25;;;;;;;13.87;12.57;;;20.00;99.90;;;;;;477444;249;28870;-76
2023/06/20 06:09:26;;;;;;;13.47;12.17;;;20.00;99.90;;;;;;477442;249;28884;-76
2023/06/20 06:11:27;;;;;;;14.80;13.30;;;20.10;99.90;;;;;;477435;249;29298;-77
2023/06/20 06:13:28;;;;;;;14.73;13.27;;;20.20;99.90;;;;;;477502;249;29352;-76
2023/06/20 06:15:30;;;;;;;15.60;14.00;;;20.20;99.90;;;;;;477470;249;28816;-76
2023/06/20 06:17:31;;;;;;;15.53;13.93;;;20.20;99.90;;;;;;477409;245;28874;-76
2023/06/20 06:19:32;;;;;;;15.03;12.90;;;20.30;99.90;;;;;;477467;249;28894;-76
2023/06/20 06:21:34;;;;;;;13.07;11.80;;;20.30;99.90;;;;;;477521;249;28965;-77
2023/06/20 06:23:35;;;;;;;15.60;13.10;;;20.40;99.90;;;;;;477511;249;29534;-77
2023/06/20 06:25:36;;;;;;;14.63;12.50;;;20.40;99.90;;;;;;484258;243;28810;-77
2023/06/20 06:27:37;;;;;;;14.30;12.90;;;20.40;99.90;;;;;;489888;243;28828;-76
2023/06/20 06:29:42;;;;;;;14.47;13.17;;;20.50;99.90;;;;;;487203;243;28838;-76
2023/06/20 06:31:43;;;;;;;15.37;13.80;;;20.50;99.90;;;;;;463968;256;28943;-76
2023/06/20 06:33:44;;;;;;;14.97;13.57;;;20.60;99.90;;;;;;471909;252;29012;-76
2023/06/20 06:35:46;;;;;;;12.40;11.30;;;20.60;99.90;;;;;;471998;252;28922;-77
2023/06/20 06:37:47;;;;;;;15.20;13.70;;;20.60;99.90;;;;;;472836;250;28997;-76
2023/06/20 06:39:48;;;;;;;13.93;12.53;;;20.60;99.90;;;;;;473767;250;29530;-77
2023/06/20 06:41:50;;;;;;;17.37;15.47;;;20.70;99.90;;;;;;474743;250;29416;-77
2023/06/20 06:43:51;;;;;;;13.70;12.40;;;20.70;99.90;;;;;;462771;236;28983;-75
2023/06/20 06:45:52;;;;;;;14.60;13.10;;;20.80;99.90;;;;;;473381;249;28749;-76
2023/06/20 06:47:54;;;;;;;14.33;12.90;;;20.80;99.90;;;;;;475824;249;28870;-76
2023/06/20 06:49:55;;;;;;;16.13;13.50;;;20.80;99.90;;;;;;473500;249;30120;-77
2023/06/20 06:51:56;;;;;;;13.13;11.83;;;20.90;99.90;;;;;;465682;255;29427;-77
2023/06/20 06:53:57;;;;;;;12.73;11.63;;;21.00;99.90;;;;;;464926;255;29090;-77
2023/06/20 06:55:58;;;;;;;13.07;11.80;;;21.00;99.90;;;;;;473218;249;28690;-76
2023/06/20 06:58:00;;;;;;;13.00;11.80;;;21.00;99.90;;;;;;476051;249;28849;-76
2023/06/20 07:00:01;;;;;;;13.57;12.17;;;21.00;99.90;;;;;;473316;249;28795;-77
2023/06/20 07:02:05;;;;;;;13.63;12.33;;;21.10;99.90;;;;;;461903;257;28840;-77
2023/06/20 07:04:04;;;;;;;13.10;11.90;;;21.10;99.90;;;;;;459569;253;30226;-77
2023/06/20 07:06:05;;;;;;;12.13;10.97;;;21.20;99.90;;;;;;465180;253;28945;-77
2023/06/20 07:08:06;;;;;;;11.90;10.70;;;21.30;99.90;;;;;;465169;253;28950;-76
2023/06/20 07:10:07;;;;;;;13.87;12.43;;;21.30;99.90;;;;;;465175;253;28937;-77
2023/06/20 07:12:09;;;;;;;15.17;11.30;;;21.30;99.90;;;;;;465186;253;28929;-77
2023/06/20 07:14:10;;;;;;;13.13;11.93;;;21.40;99.90;;;;;;465073;253;29065;-77
2023/06/20 07:16:11;;;;;;;12.87;11.67;;;21.40;99.90;;;;;;464978;253;29303;-77
2023/06/20 07:18:12;;;;;;;12.10;11.00;;;21.40;99.90;;;;;;465117;253;29567;-77
2023/06/20 07:20:14;;;;;;;12.07;11.00;;;21.40;99.90;;;;;;465603;253;28910;-76
2023/06/20 07:22:15;;;;;;;13.30;12.10;;;21.50;99.90;;;;;;467227;254;29042;-76
2023/06/20 07:24:16;;;;;;;17.70;11.50;;;21.60;99.90;;;;;;467217;254;28934;-77
2023/06/20 07:26:17;;;;;;;13.40;12.10;;;21.60;99.90;;;;;;467089;254;28916;-77
2023/06/20 07:28:20;;;;;;;11.97;10.97;;;21.70;99.90;;;;;;467157;254;29400;-77
2023/06/20 07:30:21;;;;;;;14.40;12.23;;;21.70;99.90;;;;;;465567;254;28963;-77
2023/06/20 07:32:22;;;;;;;17.60;12.50;;;21.80;99.90;;;;;;464606;240;28908;-76
2023/06/20 07:34:24;;;;;;;12.80;11.43;;;21.80;99.90;;;;;;474677;249;29275;-77
2023/06/20 07:36:25;;;;;;;13.23;11.83;;;21.70;99.90;;;;;;485134;243;29256;-77
2023/06/20 07:38:26;;;;;;;13.10;11.90;;;21.80;99.90;;;;;;479360;245;28772;-77
2023/06/20 07:40:27;;;;;;;11.20;10.10;;;22.00;99.90;;;;;;470815;250;29021;-76
2023/06/20 07:42:29;;;;;;;11.27;10.20;;;22.00;99.90;;;;;;475508;250;29011;-76
2023/06/20 07:44:30;;;;;;;12.73;11.30;;;22.10;99.90;;;;;;475459;250;28888;-77
2023/06/20 07:46:32;;;;;;;12.17;10.97;;;22.10;99.90;;;;;;475484;250;28828;-77
2023/06/20 07:48:32;;;;;;;11.00;10.03;;;22.20;99.90;;;;;;475426;250;29388;-77
2023/06/20 07:50:34;;;;;;;10.57;9.57;;;22.20;99.90;;;;;;475844;244;29389;-74
2023/06/20 07:52:36;;;;;;;11.47;9.63;;;22.30;99.90;;;;;;480901;237;28788;-79
2023/06/20 07:54:36;;;;;;;10.37;9.30;;;22.30;99.90;;;;;;492632;241;28850;-81
2023/06/20 07:56:38;;;;;;;10.10;9.20;;;22.40;99.90;;;;;;483632;241;29202;-76
2023/06/20 07:58:41;;;;;;;12.47;9.20;;;22.40;99.90;;;;;;482131;246;28866;-77
2023/06/20 08:00:41;;;;;;;12.60;9.70;;;22.50;99.90;;;;;;487143;238;28781;-78
2023/06/20 08:02:42;;;;;;;10.47;9.40;;;22.50;99.90;;;;;;484123;241;28995;-76
2023/06/20 08:04:43;;;;;;;8.77;7.97;;;22.60;99.90;;;;;;465127;255;28912;-77
2023/06/20 08:06:44;;;;;;;10.10;9.10;;;22.60;99.90;;;;;;458765;254;29005;-77
2023/06/20 08:08:46;;;;;;;9.80;8.90;;;22.70;99.90;;;;;;475081;250;29347;-77
2023/06/20 08:10:47;;;;;;;9.73;8.93;;;22.70;99.90;;;;;;475670;249;28879;-77
2023/06/20 08:12:48;;;;;;;9.40;8.50;;;22.80;99.90;;;;;;459665;257;29352;-77
2023/06/20 08:14:49;;;;;;;9.80;8.80;;;22.80;99.90;;;;;;476301;249;29305;-77
2023/06/20 08:16:51;;;;;;;8.20;7.47;;;22.80;99.90;;;;;;458890;257;30132;-76
2023/06/20 08:18:52;;;;;;;8.27;7.53;;;22.90;99.90;;;;;;475250;246;29409;-77
2023/06/20 08:20:53;;;;;;;8.60;7.80;;;22.90;99.90;;;;;;475566;249;28802;-77
2023/06/20 08:22:54;;;;;;;9.17;8.37;;;22.90;99.90;;;;;;459416;258;28897;-76
2023/06/20 08:24:56;;;;;;;9.63;8.50;;;22.90;99.90;;;;;;476108;246;28872;-76
2023/06/20 08:26:57;;;;;;;9.20;8.20;;;23.10;99.90;;;;;;459466;257;28900;-76
2023/06/20 08:28:58;;;;;;;8.43;7.60;;;23.20;99.90;;;;;;476415;249;28791;-77
2023/06/20 08:30:59;;;;;;;8.13;7.43;;;23.20;99.90;;;;;;459717;257;28945;-76
2023/06/20 08:33:01;;;;;;;8.00;7.30;;;23.20;99.90;;;;;;476540;248;28929;-76
2023/06/20 08:35:02;;;;;;;7.83;7.03;;;23.20;99.90;;;;;;459429;253;28920;-77
2023/06/20 08:37:03;;;;;;;8.47;7.67;;;23.20;99.90;;;;;;476275;248;28899;-77
2023/06/20 08:39:05;;;;;;;7.90;7.20;;;23.30;99.90;;;;;;459588;257;30186;-76
2023/06/20 08:41:06;;;;;;;10.03;7.77;;;23.20;99.90;;;;;;476424;248;29391;-77
2023/06/20 08:43:07;;;;;;;8.30;7.13;;;23.40;99.90;;;;;;470505;238;29990;-76
2023/06/20 08:45:08;;;;;;;8.17;7.37;;;23.30;99.90;;;;;;485257;244;28892;-78
2023/06/20 08:47:10;;;;;;;9.23;8.07;;;23.40;99.90;;;;;;485362;245;28891;-77
2023/06/20 08:49:14;;;;;;;8.10;7.40;;;23.50;99.90;;;;;;485380;245;28879;-76
2023/06/20 08:51:12;;;;;;;7.43;6.43;;;23.50;99.90;;;;;;485316;244;28855;-78
2023/06/20 08:53:13;;;;;;;8.50;7.77;;;23.60;99.90;;;;;;485550;245;28814;-77
2023/06/20 08:55:15;;;;;;;7.20;6.50;;;23.70;99.90;;;;;;485532;245;28892;-77
2023/06/20 08:57:18;;;;;;;7.30;6.70;;;23.70;99.90;;;;;;480984;245;29362;-78
2023/06/20 08:59:17;;;;;;;6.03;5.53;;;23.80;99.90;;;;;;471494;251;29564;-77
2023/06/20 09:01:19;;;;;;;7.60;6.27;;;23.80;99.90;;;;;;480392;246;28845;-76
2023/06/20 09:03:20;;;;;;;6.50;5.90;;;23.80;99.90;;;;;;484698;241;28907;-77
2023/06/20 09:05:21;;;;;;;6.83;6.23;;;23.80;99.90;;;;;;479542;247;29383;-77
2023/06/20 09:07:22;;;;;;;7.00;6.30;;;23.70;99.90;;;;;;479663;247;29112;-78
2023/06/20 09:09:24;;;;;;;5.83;5.33;;;23.70;99.90;;;;;;479615;247;28765;-78
2023/06/20 09:11:25;;;;;;;6.00;5.50;;;23.70;99.90;;;;;;481895;246;29314;-78
2023/06/20 09:13:28;;;;;;;7.20;6.30;;;23.80;99.90;;;;;;477204;246;28822;-77
2023/06/20 09:15:27;;;;;;;7.80;5.83;;;23.90;99.90;;;;;;477568;248;28899;-78
2023/06/20 09:17:29;;;;;;;6.37;5.77;;;23.90;99.90;;;;;;476879;247;29005;-77
2023/06/20 09:19:30;;;;;;;6.50;5.90;;;23.90;99.90;;;;;;478176;248;28864;-77
2023/06/20 09:21:31;;;;;;;5.93;5.33;;;23.90;99.90;;;;;;477267;247;28932;-78
2023/06/20 09:23:33;;;;;;;6.07;5.47;;;23.90;99.90;;;;;;478235;248;29353;-78
2023/06/20 09:25:36;;;;;;;6.10;5.07;;;24.00;99.90;;;;;;477324;247;29404;-76
2023/06/20 09:27:35;;;;;;;7.30;5.67;;;24.10;99.90;;;;;;478121;248;29377;-77
2023/06/20 09:29:36;;;;;;;5.97;5.47;;;24.20;99.90;;;;;;477307;248;29401;-77
2023/06/20 09:31:37;;;;;;;6.30;5.70;;;24.30;99.90;;;;;;478257;248;28864;-77
2023/06/20 09:33:39;;;;;;;5.95;5.45;;;24.30;99.90;;;;;;476643;247;36324;-77
2023/06/20 09:35:40;;;;;;;7.00;6.30;;;24.30;99.90;;;;;;478306;248;27476;-76
2023/06/20 09:37:41;;;;;;;7.10;6.40;;;24.20;99.90;;;;;;477336;247;28906;-77
2023/06/20 09:39:42;;;;;;;7.70;7.00;;;24.30;99.90;;;;;;478256;248;28906;-77
2023/06/20 09:41:44;;;;;;;7.87;6.23;;;24.30;99.90;;;;;;477267;247;28899;-77
2023/06/20 09:43:45;;;;;;;7.03;6.13;;;24.50;99.90;;;;;;478282;248;28997;-78
2023/06/20 09:45:46;;;;;;;8.07;7.27;;;24.70;99.90;;;;;;477235;249;28836;-77
2023/06/20 09:47:47;;;;;;;6.80;6.10;;;24.80;99.90;;;;;;478241;248;29491;-77
2023/06/20 09:49:49;;;;;;;7.60;6.80;;;24.90;99.90;;;;;;477298;247;29286;-77
2023/06/20 09:51:50;;;;;;;6.93;6.27;;;24.80;99.90;;;;;;478289;247;29462;-76
2023/06/20 09:53:51;;;;;;;7.20;6.50;;;24.70;99.90;;;;;;477345;247;29400;-78
2023/06/20 09:55:52;;;;;;;7.70;6.87;;;24.80;99.90;;;;;;478262;248;28913;-77
2023/06/20 09:57:54;;;;;;;7.53;6.93;;;24.70;99.90;;;;;;477337;247;28971;-77
2023/06/20 09:59:55;;;;;;;6.87;5.70;;;24.70;99.90;;;;;;478257;248;28928;-77
2023/06/20 10:01:57;;;;;;;6.40;5.83;;;24.60;99.90;;;;;;477303;247;28874;-77
2023/06/20 10:03:57;;;;;;;7.20;6.50;;;24.60;99.90;;;;;;478733;248;29000;-77
2023/06/20 10:05:59;;;;;;;7.73;6.60;;;24.60;99.90;;;;;;469288;252;28796;-77
2023/06/20 10:08:00;;;;;;;6.63;6.07;;;24.70;99.90;;;;;;478030;249;29003;-78
2023/06/20 10:10:01;;;;;;;7.70;6.93;;;24.70;99.90;;;;;;477295;249;28862;-76
2023/06/20 10:12:02;;;;;;;6.67;6.07;;;24.80;99.90;;;;;;477993;249;29389;-77
2023/06/20 10:14:04;;;;;;;7.10;6.50;;;24.80;99.90;;;;;;477316;249;29580;-77
2023/06/20 10:16:05;;;;;;;7.33;6.63;;;24.80;99.90;;;;;;477900;249;29342;-76
2023/06/20 10:18:06;;;;;;;6.97;6.33;;;24.90;99.90;;;;;;477334;249;29417;-77
2023/06/20 10:20:07;;;;;;;7.03;6.43;;;25.10;99.90;;;;;;478011;249;28892;-76
2023/06/20 10:22:09;;;;;;;6.83;5.90;;;25.10;99.90;;;;;;477259;249;28913;-76